Main page
METAR-TAF:

METAR-TAF

Airports :

Niamey, Niger

Diori Hamani International Airport

latitude: 13-29N, longitude: 002-10E, elevation: 223 m

Current weather observation

The report was made 1 hour and 15 minutes ago, at 08:00 UTC
Wind 5 kt from the Southwest, varying between South/Southwest and West
Temperature 28°C
Humidity 66%
Pressure 1015 hPa
Visibility 10 km or more
no clouds below 1500 m and no cumulonimbus

METAR: DRRN 230800Z 23005KT 200V260 CAVOK 28/21 Q1015 NOSIG

Time: 10:15 (09:15 UTC)

Forecast

The report was made 4 hours and 15 minutes ago, at 05:00 UTC
Forecast valid from 23 at 06 UTC to 24 at 12 UTC
Wind 8 kt from the Southwest
Visibility 10 km or more
Few clouds at a height of 2300 ft
Probability 40% :
Temporary
from 23 at 14 UTC to 23 at 20 UTC
Scattered clouds at a height of 1600 ft
Few clouds at a height of 3000 ft, Cumulonimbus.
thunderstorm

TAF: DRRN 230500Z 2306/2412 23008KT 9999 FEW023 PROB40 TEMPO 2314/2320 TS SCT016 FEW030CB

Weather observations and forecasts of more than 4000 airports (METAR and TAF reports).

The available stations are represented by yellow and red dots on the map.

Hover mouse over dot to see the name of the station.

Then click to see weather observations and forecasts.

To change the map : click on the green buttons with a black cross to zoom in, on the green button with a dash to zoom out, or on the green arrows for adjacent maps.


METAR-TAF: